Time;durP1;ratioP1;P1;durP2;ratioP2;P2;SDS_P1;SDS_P2;PMS_P1;PMS_P2;Temp;Humidity;BMP_temperature;BMP_pressure;BME280_temperature;BME280_humidity;BME280_pressure;Samples;Min_cycle;Max_cycle;Signal;HPM_P1;HPM_P2
2022/05/12 00:03:30;;;;;;;3.58;1.30;;;14.70;79.70;;;;;;21162559;27;20027;-59
2022/05/12 00:13:34;;;;;;;2.90;1.10;;;14.90;80.30;;;;;;21218886;27;20066;-58
2022/05/12 00:23:36;;;;;;;3.38;2.00;;;14.70;79.10;;;;;;21169511;27;20035;-58
2022/05/12 00:33:39;;;;;;;4.40;1.90;;;14.10;87.50;;;;;;21157160;27;20544;-58
2022/05/12 00:43:49;;;;;;;2.42;1.25;;;13.70;90.40;;;;;;21207466;27;20069;-58
2022/05/12 00:53:54;;;;;;;4.60;1.40;;;13.80;87.60;;;;;;21118492;27;20488;-58
2022/05/12 01:03:58;;;;;;;2.92;1.10;;;13.70;87.10;;;;;;21147448;27;20278;-59
2022/05/12 01:14:05;;;;;;;2.22;0.95;;;13.40;87.20;;;;;;21131504;28;20112;-52
2022/05/12 01:24:08;;;;;;;6.78;3.30;;;14.10;86.70;;;;;;21145515;27;20100;-50
2022/05/12 01:34:13;;;;;;;5.47;2.03;;;14.00;91.10;;;;;;21154920;27;20043;-53
2022/05/12 01:44:15;;;;;;;5.03;2.42;;;13.60;86.90;;;;;;21164821;27;20044;-53
2022/05/12 01:54:18;;;;;;;6.07;2.78;;;13.40;91.70;;;;;;21170863;28;20234;-52
2022/05/12 02:04:20;;;;;;;6.43;2.80;;;13.60;90.90;;;;;;21172629;28;20039;-51
2022/05/12 02:14:23;;;;;;;6.20;1.70;;;13.10;91.60;;;;;;21172480;28;20089;-58
2022/05/12 02:24:26;;;;;;;2.80;1.52;;;12.20;92.10;;;;;;21147779;28;20035;-55
2022/05/12 02:34:28;;;;;;;5.43;2.10;;;11.90;92.50;;;;;;21151301;28;20039;-52
2022/05/12 02:44:31;;;;;;;5.90;1.48;;;11.50;94.10;;;;;;21188406;28;20115;-53
2022/05/12 02:54:35;;;;;;;5.70;3.03;;;11.30;93.80;;;;;;21197070;27;20039;-51
2022/05/12 03:04:37;;;;;;;3.72;1.65;;;11.10;95.60;;;;;;21185271;27;20064;-51
2022/05/12 03:14:40;;;;;;;6.93;1.75;;;10.90;94.70;;;;;;21155592;27;20435;-50
2022/05/12 03:24:43;;;;;;;2.60;1.60;;;10.90;94.60;;;;;;21179923;27;20061;-50
2022/05/12 03:34:45;;;;;;;2.53;1.50;;;10.60;94.90;;;;;;21196005;27;20035;-53
2022/05/12 03:44:49;;;;;;;3.45;2.13;;;10.50;96.10;;;;;;21221047;27;20039;-52
2022/05/12 03:54:52;;;;;;;4.85;1.88;;;10.30;97.00;;;;;;21174422;27;20255;-51
2022/05/12 04:04:54;;;;;;;3.35;1.80;;;10.20;96.80;;;;;;21156414;27;20484;-52
2022/05/12 04:14:59;;;;;;;2.40;1.45;;;9.80;98.10;;;;;;21150664;27;20031;-52
2022/05/12 04:25:01;;;;;;;4.00;1.83;;;9.60;97.10;;;;;;21144807;27;20061;-52
2022/05/12 04:35:12;;;;;;;4.47;1.95;;;9.50;97.30;;;;;;21170062;27;20487;-51
2022/05/12 04:45:16;;;;;;;4.03;1.75;;;9.50;99.30;;;;;;21211470;27;20101;-52
2022/05/12 04:55:19;;;;;;;2.92;1.85;;;9.60;99.70;;;;;;21173569;27;20047;-58
2022/05/12 05:05:22;;;;;;;4.88;2.70;;;9.40;99.90;;;;;;21205707;27;20091;-58
2022/05/12 05:15:26;;;;;;;9.95;2.42;;;9.60;99.90;;;;;;21186819;27;20495;-52
2022/05/12 05:25:31;;;;;;;7.05;3.42;;;9.80;99.90;;;;;;21171180;27;20031;-50
2022/05/12 05:35:34;;;;;;;7.43;2.83;;;10.00;99.90;;;;;;21165884;27;20452;-58
2022/05/12 05:45:36;;;;;;;6.18;3.38;;;10.30;99.90;;;;;;21107281;28;20043;-52
2022/05/12 05:55:42;;;;;;;5.28;3.00;;;10.50;99.90;;;;;;21149004;28;20093;-49
2022/05/12 06:05:45;;;;;;;4.53;2.67;;;11.00;99.90;;;;;;21190422;28;20576;-52
2022/05/12 06:15:49;;;;;;;5.53;3.28;;;11.70;99.90;;;;;;21159733;28;20065;-59
2022/05/12 06:25:52;;;;;;;4.60;2.50;;;12.80;99.90;;;;;;21164909;28;20108;-55
2022/05/12 06:35:58;;;;;;;5.28;3.53;;;17.10;97.70;;;;;;21004560;28;20044;-55
2022/05/12 06:46:00;;;;;;;4.57;2.90;;;18.90;93.90;;;;;;20964137;28;20072;-59
2022/05/12 06:56:03;;;;;;;7.28;3.35;;;20.30;92.60;;;;;;20963680;28;20137;-57
2022/05/12 07:06:07;;;;;;;5.28;3.20;;;23.00;90.90;;;;;;20958904;28;20079;-62
2022/05/12 07:16:11;;;;;;;4.47;3.20;;;24.50;85.80;;;;;;21011111;28;20048;-63
2022/05/12 07:36:41;;;;;;;4.25;3.35;;;25.10;87.40;;;;;;21070010;28;20027;-64
2022/05/12 07:46:45;;;;;;;4.50;3.38;;;25.00;86.20;;;;;;21140660;27;20499;-63
2022/05/12 07:56:58;;;;;;;7.17;4.77;;;24.50;83.90;;;;;;21182529;27;20035;-63
2022/05/12 08:07:01;;;;;;;5.22;4.10;;;24.50;88.50;;;;;;21155242;27;20084;-64
2022/05/12 08:17:04;;;;;;;5.50;4.15;;;24.40;87.70;;;;;;21179234;27;20039;-64
2022/05/12 08:27:07;;;;;;;6.13;4.95;;;24.80;88.60;;;;;;21168481;27;20077;-57
2022/05/12 08:37:11;;;;;;;6.53;4.50;;;25.00;87.10;;;;;;21156838;27;20036;-65
2022/05/12 08:47:23;;;;;;;6.20;5.22;;;25.00;89.10;;;;;;21131864;28;20051;-65
2022/05/12 08:57:31;;;;;;;5.22;4.53;;;24.80;88.80;;;;;;21171014;27;20076;-64
2022/05/12 09:07:55;;;;;;;7.05;5.75;;;24.50;91.40;;;;;;21201880;27;20236;-65
2022/05/12 09:18:08;;;;;;;5.57;4.45;;;24.60;91.50;;;;;;21180098;27;20053;-57
2022/05/12 09:28:27;;;;;;;6.97;5.63;;;24.70;90.50;;;;;;21142913;27;20101;-57
2022/05/12 09:38:38;;;;;;;8.98;6.22;;;24.50;91.00;;;;;;21179925;27;20107;-63
2022/05/12 09:48:41;;;;;;;7.72;6.05;;;24.50;92.00;;;;;;21196455;27;20131;-63
2022/05/12 09:58:57;;;;;;;10.05;6.43;;;24.60;92.70;;;;;;21196252;28;20552;-63
2022/05/12 10:09:16;;;;;;;9.73;6.30;;;24.50;93.50;;;;;;21173303;27;20084;-63
2022/05/12 10:19:22;;;;;;;8.18;6.53;;;24.60;93.00;;;;;;21179070;27;20096;-64
2022/05/12 10:29:31;;;;;;;13.02;7.95;;;24.60;93.60;;;;;;21140857;28;20035;-63
2022/05/12 10:39:53;;;;;;;11.30;7.78;;;24.30;92.10;;;;;;21192198;27;20178;-64
2022/05/12 10:50:26;;;;;;;13.52;9.48;;;24.50;94.20;;;;;;21156689;28;20077;-63
2022/05/12 11:00:52;;;;;;;10.70;9.02;;;24.50;94.70;;;;;;20734203;28;20089;-63
2022/05/12 11:11:02;;;;;;;11.55;9.20;;;24.70;94.30;;;;;;20753929;28;20112;-57
2022/05/12 11:21:14;;;;;;;12.75;8.65;;;24.50;95.10;;;;;;20791604;28;20076;-63
2022/05/12 11:31:26;;;;;;;11.00;7.50;;;24.60;95.10;;;;;;20908132;28;20071;-63
2022/05/12 11:41:38;;;;;;;13.32;8.48;;;24.60;94.00;;;;;;21132112;28;20074;-62
2022/05/12 11:52:03;;;;;;;13.40;8.63;;;24.30;95.70;;;;;;21069592;28;20039;-63
2022/05/12 12:02:27;;;;;;;10.13;7.72;;;24.40;94.50;;;;;;21070038;28;20028;-64
2022/05/12 12:12:42;;;;;;;13.05;8.10;;;24.10;94.50;;;;;;21068171;28;20062;-64
2022/05/12 12:22:51;;;;;;;12.55;6.80;;;24.20;95.20;;;;;;21050418;28;20032;-63
2022/05/12 12:33:09;;;;;;;11.65;6.70;;;24.30;95.10;;;;;;21049785;28;20085;-63
2022/05/12 12:43:19;;;;;;;11.32;6.85;;;24.60;96.00;;;;;;21085521;28;20047;-64
2022/05/12 13:03:56;;;;;;;9.02;5.78;;;24.50;93.80;;;;;;21191652;27;20031;-63
2022/05/12 13:13:59;;;;;;;9.10;5.45;;;24.70;95.70;;;;;;21209220;27;20039;-64
2022/05/12 13:24:13;;;;;;;7.53;5.20;;;24.60;92.20;;;;;;21186572;27;20084;-63
2022/05/12 13:34:18;;;;;;;8.90;6.78;;;24.50;94.70;;;;;;21183890;27;20475;-64
2022/05/12 13:44:26;;;;;;;6.03;5.30;;;24.70;93.40;;;;;;21155920;27;20047;-64
2022/05/12 13:54:32;;;;;;;9.75;5.53;;;24.80;94.10;;;;;;21137684;28;20043;-63
2022/05/12 14:04:35;;;;;;;11.07;5.30;;;25.00;92.50;;;;;;21137135;28;20036;-63
2022/05/12 14:24:59;;;;;;;6.03;3.78;;;24.60;92.20;;;;;;21157815;28;20039;-62
2022/05/12 14:35:02;;;;;;;8.30;3.90;;;24.60;93.30;;;;;;21165110;28;20039;-57
2022/05/12 14:45:05;;;;;;;8.85;4.65;;;24.80;91.30;;;;;;21174805;28;20043;-63
2022/05/12 14:55:09;;;;;;;5.38;3.63;;;25.40;89.00;;;;;;21150408;28;20040;-63
2022/05/12 15:05:14;;;;;;;5.85;3.60;;;25.70;88.40;;;;;;21180016;27;20043;-63
2022/05/12 15:15:19;;;;;;;6.23;4.33;;;25.70;88.80;;;;;;21129748;27;20035;-63
2022/05/12 15:25:24;;;;;;;4.07;3.67;;;26.80;85.00;;;;;;21152944;27;20441;-63
2022/05/12 15:35:29;;;;;;;8.97;4.17;;;26.80;84.40;;;;;;21189563;27;20036;-62
2022/05/12 15:45:32;;;;;;;7.57;4.55;;;26.80;82.60;;;;;;21210222;27;20388;-62
2022/05/12 15:55:36;;;;;;;11.27;5.68;;;26.20;84.70;;;;;;21208765;27;20035;-62
2022/05/12 16:05:39;;;;;;;5.45;4.32;;;25.20;84.70;;;;;;21157515;27;20035;-61
2022/05/12 16:15:42;;;;;;;8.85;5.65;;;24.70;85.80;;;;;;21139797;27;20040;-62
2022/05/12 16:25:50;;;;;;;7.55;5.40;;;22.30;90.50;;;;;;21182899;27;20492;-56
2022/05/12 16:35:53;;;;;;;6.80;5.22;;;20.10;93.00;;;;;;21136620;28;20031;-61
2022/05/12 16:45:57;;;;;;;9.90;5.63;;;18.40;95.40;;;;;;21137687;27;20040;-57
2022/05/12 16:55:59;;;;;;;9.60;6.03;;;17.10;97.40;;;;;;21166680;27;20081;-53
2022/05/12 17:06:03;;;;;;;9.88;6.53;;;16.30;99.70;;;;;;21157607;27;20099;-59
2022/05/12 17:16:07;;;;;;;11.25;6.82;;;15.40;99.90;;;;;;21202430;27;20096;-60
2022/05/12 17:26:10;;;;;;;12.27;7.65;;;14.90;99.90;;;;;;21163765;27;20039;-59
2022/05/12 17:36:13;;;;;;;13.52;7.88;;;14.50;99.90;;;;;;21144986;27;20794;-54
2022/05/12 17:46:17;;;;;;;10.65;6.78;;;14.20;99.90;;;;;;21148741;27;20088;-59
2022/05/12 17:56:24;;;;;;;16.40;8.10;;;13.90;99.90;;;;;;21195771;28;20051;-60
2022/05/12 18:06:27;;;;;;;13.65;8.07;;;13.80;99.90;;;;;;21170235;28;20479;-59
2022/05/12 18:16:31;;;;;;;17.20;11.77;;;13.50;99.90;;;;;;21195872;28;20035;-60
2022/05/12 18:26:34;;;;;;;18.13;10.07;;;13.30;99.90;;;;;;21187085;27;20096;-55
2022/05/12 18:36:37;;;;;;;22.75;12.10;;;13.30;99.90;;;;;;21170181;27;20065;-58
2022/05/12 18:46:40;;;;;;;19.98;12.00;;;13.10;99.90;;;;;;21201582;27;20103;-58
2022/05/12 18:56:42;;;;;;;16.17;10.15;;;12.90;99.90;;;;;;21226684;27;20027;-51
2022/05/12 19:06:46;;;;;;;17.40;10.20;;;13.00;99.90;;;;;;21181941;27;20036;-59
2022/05/12 19:16:48;;;;;;;20.05;11.05;;;12.70;99.90;;;;;;21170917;27;20039;-58
2022/05/12 19:26:51;;;;;;;18.02;10.95;;;12.30;99.90;;;;;;21183612;27;20081;-54
2022/05/12 19:36:53;;;;;;;29.05;13.20;;;12.20;99.90;;;;;;21176971;27;20391;-58
2022/05/12 19:46:57;;;;;;;18.83;11.73;;;12.20;99.90;;;;;;21159578;27;20569;-57
2022/05/12 19:57:00;;;;;;;19.65;12.98;;;12.20;99.90;;;;;;21158405;27;20092;-55
2022/05/12 20:07:04;;;;;;;20.02;13.45;;;12.30;99.90;;;;;;21218250;27;20088;-59
2022/05/12 20:17:06;;;;;;;26.20;13.13;;;12.20;99.90;;;;;;21212250;27;20035;-59
2022/05/12 20:27:09;;;;;;;27.30;14.25;;;12.10;99.90;;;;;;21174257;27;20031;-58
2022/05/12 20:37:13;;;;;;;21.13;12.90;;;12.00;99.90;;;;;;21168494;27;20035;-58
2022/05/12 20:47:16;;;;;;;23.58;14.02;;;12.00;99.90;;;;;;21208299;27;20047;-59
2022/05/12 20:57:18;;;;;;;21.73;13.30;;;12.00;99.90;;;;;;21173296;27;20091;-59
2022/05/12 21:07:23;;;;;;;21.08;13.68;;;12.00;99.90;;;;;;21183623;27;20040;-59
2022/05/12 21:17:26;;;;;;;23.48;13.98;;;12.00;99.90;;;;;;21194383;27;20043;-58
2022/05/12 21:27:29;;;;;;;21.95;12.77;;;11.90;99.90;;;;;;21161365;27;20092;-58
2022/05/12 21:37:31;;;;;;;23.90;14.02;;;11.80;99.90;;;;;;21138776;27;20408;-58
2022/05/12 21:47:34;;;;;;;23.75;15.25;;;11.60;99.90;;;;;;21176740;27;20081;-58
2022/05/12 22:07:59;;;;;;;32.38;17.58;;;11.60;99.90;;;;;;21154506;27;20036;-58
2022/05/12 22:18:03;;;;;;;31.15;18.90;;;11.60;99.90;;;;;;21188991;27;20111;-53
2022/05/12 22:28:07;;;;;;;35.53;20.70;;;11.60;99.90;;;;;;21167430;27;20113;-58
2022/05/12 22:38:10;;;;;;;31.17;18.25;;;11.60;99.90;;;;;;21219975;27;20476;-53
2022/05/12 22:48:12;;;;;;;32.22;20.20;;;11.50;99.90;;;;;;21187138;27;20106;-53
2022/05/12 22:58:15;;;;;;;36.20;19.33;;;11.50;99.90;;;;;;21159691;27;20108;-53
2022/05/12 23:08:18;;;;;;;34.17;19.40;;;11.40;99.90;;;;;;21158407;27;20039;-58
2022/05/12 23:18:21;;;;;;;32.97;20.52;;;11.40;99.90;;;;;;21122596;28;20080;-53
2022/05/12 23:28:23;;;;;;;38.85;23.00;;;11.40;99.90;;;;;;21169869;27;20040;-51
2022/05/12 23:38:26;;;;;;;47.65;25.45;;;11.40;99.90;;;;;;21148969;27;20093;-53
2022/05/12 23:48:28;;;;;;;38.33;22.70;;;11.50;99.90;;;;;;21187861;27;20059;-53
2022/05/12 23:58:31;;;;;;;47.20;23.00;;;11.40;99.90;;;;;;21146108;28;20093;-53
